Bear Creek Observed Data For Previous 48 Hours

Caption
Day and Hour Reservoir Elevation (behind dam)* Tailwater Elevation (below dam)* Average Hourly Discharge*
12/11/2018 1 AM CST 573.24 542.31 718
12/11/2018 2 AM CST 573.25 542.31 718
12/11/2018 3 AM CST 573.26 542.31 718
12/11/2018 4 AM CST 573.27 542.29 713
12/11/2018 5 AM CST 573.28 542.32 720
12/11/2018 6 AM CST 573.28 542.31 718
12/11/2018 7 AM CST 573.29 542.31 718
12/11/2018 8 AM CST 573.30 542.30 716
12/11/2018 9 AM CST 573.28 542.94 864
12/11/2018 10 AM CST 573.25 543.15 913
12/11/2018 11 AM CST 573.22 543.20 925
12/11/2018 12 PM CST 573.17 543.24 934
12/11/2018 1 PM CST 573.14 543.24 934
12/11/2018 2 PM CST 573.10 543.26 939
12/11/2018 3 PM CST 573.06 543.25 936
12/11/2018 4 PM CST 573.03 543.25 936
12/11/2018 5 PM CST 572.99 543.25 936
12/11/2018 6 PM CST 572.95 543.25 936
12/11/2018 7 PM CST 572.91 543.24 934
12/11/2018 8 PM CST 572.86 543.24 934
12/11/2018 9 PM CST 572.82 543.24 934
12/11/2018 10 PM CST 572.77 543.23 932
12/11/2018 11 PM CST 572.73 543.23 932
12/12/2018 12 AM CST 572.68 543.23 932
12/12/2018 1 AM CST 572.64 543.22 929
12/12/2018 2 AM CST 572.59 543.21 927
12/12/2018 3 AM CST 572.54 543.21 927
12/12/2018 4 AM CST 572.49 543.21 927
12/12/2018 5 AM CST 572.44 543.20 925
12/12/2018 6 AM CST 572.39 543.19 922
12/12/2018 7 AM CST 572.34 543.18 920
12/12/2018 8 AM CST 572.28 543.18 920
12/12/2018 9 AM CST 572.23 543.17 918
12/12/2018 10 AM CST 572.17 543.16 915
12/12/2018 11 AM CST 572.12 543.15 913
12/12/2018 12 PM CST 572.06 543.15 913
12/12/2018 1 PM CST 572.00 543.13 908
12/12/2018 2 PM CST 572.03 540.03 241
12/12/2018 3 PM CST 572.10 539.47 156
12/12/2018 4 PM CST 572.11 541.44 522
12/12/2018 5 PM CST 572.07 542.62 789
12/12/2018 6 PM CST 572.02 542.89 852
12/12/2018 7 PM CST 571.96 543.00 878
12/12/2018 8 PM CST 571.90 543.04 887
12/12/2018 9 PM CST 571.83 543.06 892
12/12/2018 10 PM CST 571.77 543.07 894
12/12/2018 11 PM CST 571.71 543.08 896
12/13/2018 12 AM CST 571.65 543.07 894
12/13/2018 1 AM CST 571.58 543.06 892
12/13/2018 2 AM CST 571.51 543.05 889
12/13/2018 3 AM CST 571.44 543.04 887
12/13/2018 4 AM CST 571.38 543.04 887
12/13/2018 5 AM CST 571.31 543.03 885
12/13/2018 6 AM CST 571.24 543.03 885
12/13/2018 7 AM CST 571.17 543.02 882
12/13/2018 8 AM CST 571.10 543.01 880
12/13/2018 9 AM CST 571.02 543.00 878
12/13/2018 10 AM CST 570.95 543.00 878
12/13/2018 11 AM CST 570.87 542.98 873
12/13/2018 12 PM CST 570.79 542.98 873
12/13/2018 1 PM CST 570.71 542.95 866
12/13/2018 2 PM CST 570.64 542.95 866
12/13/2018 3 PM CST 570.56 542.94 864
12/13/2018 4 PM CST 570.48 542.93 861

Elevations are in feet above sea level. Discharges are in cubic feet per second and are reported at the end of the hour.